F7LR LFKJ-LEPA
Flight info
| Callsign | F7LR |
|---|---|
| Flight time | N/A |
| Altitude | 10000 |
| Route | NEGAT DCT BALEN UT250 RIXOT |
| Aircraft | DA42/L-SDFGRY/C |
Departure
| Time | 2026-05-08 02:53 |
|---|---|
| Airport | Ajaccio Napoléon Bonaparte airport (LFKJ) |
Arrival
| Time | N/A |
|---|---|
| Airport | Palma de Mallorca Airport (LEPA) |
| Time | Latitude | Longitude | Altitude | Speed | Heading |
|---|---|---|---|---|---|
| 2026-05-08 02:29 | 41.92186 | 8.79484 | 18 ft | 0 kts | 4° |
| 2026-05-08 02:44 | 41.92197 | 8.79486 | 18 ft | 7 kts | 13° |
| 2026-05-08 02:44 | 41.92267 | 8.79521 | 16 ft | 8 kts | 2° |
| 2026-05-08 02:45 | 41.92272 | 8.79521 | 16 ft | 0 kts | 4° |
| 2026-05-08 02:48 | 41.92288 | 8.79523 | 16 ft | 11 kts | 5° |
| 2026-05-08 02:49 | 41.92306 | 8.79614 | 17 ft | 14 kts | 95° |
| 2026-05-08 02:49 | 41.92297 | 8.79770 | 21 ft | 17 kts | 95° |
| 2026-05-08 02:49 | 41.92290 | 8.79915 | 21 ft | 14 kts | 92° |
| 2026-05-08 02:49 | 41.92280 | 8.80021 | 16 ft | 8 kts | 95° |
| 2026-05-08 02:50 | 41.92278 | 8.80043 | 16 ft | 0 kts | 94° |
| 2026-05-08 02:51 | 41.92268 | 8.80116 | 15 ft | 11 kts | 123° |
| 2026-05-08 02:51 | 41.92215 | 8.80138 | 14 ft | 5 kts | 206° |
| 2026-05-08 02:52 | 41.92163 | 8.80105 | 14 ft | 31 kts | 205° |
| 2026-05-08 02:52 | 41.91772 | 8.79861 | 12 ft | 88 kts | 204° |
| 2026-05-08 02:52 | 41.91159 | 8.79495 | 204 ft | 100 kts | 203° |
| 2026-05-08 02:52 | 41.90493 | 8.79121 | 485 ft | 108 kts | 201° |
| 2026-05-08 02:53 | 41.89789 | 8.78705 | 763 ft | 114 kts | 217° |
| 2026-05-08 02:53 | 41.89386 | 8.77818 | 1069 ft | 114 kts | 263° |
| 2026-05-08 02:53 | 41.89314 | 8.76791 | 1433 ft | 107 kts | 253° |
| 2026-05-08 02:53 | 41.89001 | 8.75888 | 1762 ft | 106 kts | 242° |
| 2026-05-08 02:54 | 41.88655 | 8.75041 | 2101 ft | 103 kts | 242° |
| 2026-05-08 02:54 | 41.88304 | 8.74202 | 2420 ft | 103 kts | 242° |
| 2026-05-08 02:54 | 41.87948 | 8.73359 | 2724 ft | 104 kts | 242° |
| 2026-05-08 02:54 | 41.87588 | 8.72513 | 3033 ft | 104 kts | 242° |
| 2026-05-08 02:55 | 41.87226 | 8.71666 | 3352 ft | 104 kts | 242° |
| 2026-05-08 02:55 | 41.86501 | 8.69977 | 3954 ft | 106 kts | 242° |
| 2026-05-08 02:55 | 41.86131 | 8.69120 | 4258 ft | 106 kts | 242° |
| 2026-05-08 02:56 | 41.85760 | 8.68257 | 4572 ft | 107 kts | 242° |
| 2026-05-08 02:56 | 41.85384 | 8.67386 | 4869 ft | 108 kts | 242° |
| 2026-05-08 02:56 | 41.85006 | 8.66510 | 5166 ft | 109 kts | 241° |
| 2026-05-08 02:56 | 41.84626 | 8.65630 | 5477 ft | 110 kts | 241° |
| 2026-05-08 02:57 | 41.84240 | 8.64738 | 5782 ft | 111 kts | 240° |
| 2026-05-08 02:57 | 41.84140 | 8.64507 | 5860 ft | 111 kts | 240° |
| 2026-05-08 02:57 | 41.83896 | 8.63943 | 6048 ft | 112 kts | 240° |
| 2026-05-08 02:58 | 41.83503 | 8.63035 | 6358 ft | 113 kts | 239° |
| 2026-05-08 02:58 | 41.83113 | 8.62131 | 6647 ft | 114 kts | 239° |
| 2026-05-08 02:58 | 41.82714 | 8.61209 | 6943 ft | 115 kts | 239° |
| 2026-05-08 02:58 | 41.82312 | 8.60281 | 7239 ft | 116 kts | 239° |
| 2026-05-08 02:59 | 41.81864 | 8.59381 | 7526 ft | 116 kts | 231° |
| 2026-05-08 02:59 | 41.81386 | 8.58509 | 7819 ft | 117 kts | 233° |
| 2026-05-08 02:59 | 41.80906 | 8.57624 | 8117 ft | 117 kts | 233° |
| 2026-05-08 02:59 | 41.80421 | 8.56737 | 8416 ft | 118 kts | 233° |
| 2026-05-08 03:00 | 41.79933 | 8.55848 | 8707 ft | 119 kts | 232° |
| 2026-05-08 03:00 | 41.79438 | 8.54950 | 9009 ft | 120 kts | 232° |
| 2026-05-08 03:00 | 41.78943 | 8.54051 | 9311 ft | 120 kts | 232° |
| 2026-05-08 03:00 | 41.78444 | 8.53146 | 9617 ft | 121 kts | 232° |
| 2026-05-08 03:01 | 41.77948 | 8.52247 | 9920 ft | 123 kts | 232° |
| 2026-05-08 03:01 | 41.77394 | 8.51240 | 9946 ft | 145 kts | 233° |
| 2026-05-08 03:01 | 41.76764 | 8.50091 | 9943 ft | 158 kts | 233° |
| 2026-05-08 03:01 | 41.76098 | 8.48882 | 9949 ft | 164 kts | 232° |
| 2026-05-08 03:02 | 41.75409 | 8.47638 | 9952 ft | 168 kts | 232° |
| 2026-05-08 03:02 | 41.74771 | 8.46487 | 9950 ft | 170 kts | 232° |
| 2026-05-08 03:02 | 41.74399 | 8.45814 | 9954 ft | 170 kts | 232° |
| 2026-05-08 03:02 | 41.73689 | 8.44531 | 9947 ft | 172 kts | 232° |
| 2026-05-08 03:03 | 41.72976 | 8.43243 | 9954 ft | 173 kts | 232° |
| 2026-05-08 03:03 | 41.72374 | 8.42157 | 9955 ft | 174 kts | 232° |
| 2026-05-08 03:03 | 41.71981 | 8.41446 | 9945 ft | 174 kts | 232° |
| 2026-05-08 03:04 | 41.71257 | 8.40138 | 9959 ft | 175 kts | 232° |
| 2026-05-08 03:04 | 41.70614 | 8.38978 | 9954 ft | 176 kts | 232° |
| 2026-05-08 03:08 | 41.70153 | 8.38144 | 9958 ft | 175 kts | 232° |
| 2026-05-08 03:08 | 41.69426 | 8.36832 | 9961 ft | 175 kts | 232° |
| 2026-05-08 03:08 | 41.68700 | 8.35523 | 9959 ft | 175 kts | 232° |
| 2026-05-08 03:08 | 41.67973 | 8.34213 | 9958 ft | 175 kts | 232° |
| 2026-05-08 03:09 | 41.67246 | 8.32903 | 9963 ft | 175 kts | 232° |
| 2026-05-08 03:09 | 41.66519 | 8.31593 | 9968 ft | 176 kts | 232° |
| 2026-05-08 03:09 | 41.65789 | 8.30279 | 9964 ft | 176 kts | 232° |
| 2026-05-08 03:09 | 41.65059 | 8.28965 | 9966 ft | 176 kts | 232° |
| 2026-05-08 03:10 | 41.64326 | 8.27647 | 9972 ft | 177 kts | 232° |
| 2026-05-08 03:10 | 41.63592 | 8.26328 | 9974 ft | 177 kts | 232° |
| 2026-05-08 03:10 | 41.62858 | 8.25009 | 9975 ft | 177 kts | 232° |
| 2026-05-08 03:10 | 41.62133 | 8.23705 | 9969 ft | 177 kts | 232° |
| 2026-05-08 03:11 | 41.61400 | 8.22391 | 9975 ft | 176 kts | 232° |
| 2026-05-08 03:11 | 41.60667 | 8.21075 | 9971 ft | 176 kts | 232° |
| 2026-05-08 03:11 | 41.59938 | 8.19765 | 9980 ft | 175 kts | 232° |
| 2026-05-08 03:11 | 41.59220 | 8.18477 | 9977 ft | 175 kts | 232° |
| 2026-05-08 03:12 | 41.58492 | 8.17172 | 9979 ft | 175 kts | 232° |
| 2026-05-08 03:12 | 41.57759 | 8.15860 | 9982 ft | 176 kts | 232° |
| 2026-05-08 03:12 | 41.57029 | 8.14553 | 9982 ft | 176 kts | 232° |
| 2026-05-08 03:12 | 41.56296 | 8.13241 | 9983 ft | 176 kts | 232° |
| 2026-05-08 03:13 | 41.55809 | 8.12370 | 9986 ft | 176 kts | 232° |
| 2026-05-08 03:13 | 41.55077 | 8.11060 | 9982 ft | 176 kts | 232° |
| 2026-05-08 03:13 | 41.54109 | 8.09328 | 9985 ft | 175 kts | 232° |
| 2026-05-08 03:13 | 41.53378 | 8.08022 | 9986 ft | 176 kts | 232° |
| 2026-05-08 03:14 | 41.52646 | 8.06714 | 9975 ft | 176 kts | 232° |
| 2026-05-08 03:14 | 41.52160 | 8.05846 | 9983 ft | 176 kts | 232° |
| 2026-05-08 03:14 | 41.51427 | 8.04538 | 9986 ft | 176 kts | 232° |
| 2026-05-08 03:14 | 41.50693 | 8.03228 | 9991 ft | 176 kts | 232° |
| 2026-05-08 03:15 | 41.49958 | 8.01918 | 9988 ft | 176 kts | 232° |
| 2026-05-08 03:15 | 41.49224 | 8.00609 | 9982 ft | 176 kts | 231° |
| 2026-05-08 03:15 | 41.48488 | 7.99298 | 9992 ft | 176 kts | 231° |
| 2026-05-08 03:15 | 41.47754 | 7.97989 | 9987 ft | 176 kts | 231° |
| 2026-05-08 03:16 | 41.47203 | 7.97008 | 9987 ft | 176 kts | 231° |
| 2026-05-08 03:16 | 41.46660 | 7.96041 | 9990 ft | 177 kts | 231° |
| 2026-05-08 03:16 | 41.45921 | 7.94726 | 9988 ft | 177 kts | 232° |
| 2026-05-08 03:16 | 41.45177 | 7.93403 | 9991 ft | 178 kts | 231° |
| 2026-05-08 03:17 | 41.44432 | 7.92079 | 9991 ft | 179 kts | 231° |
| 2026-05-08 03:17 | 41.43693 | 7.90765 | 9992 ft | 179 kts | 231° |
| 2026-05-08 03:17 | 41.42941 | 7.89431 | 9992 ft | 180 kts | 231° |
| 2026-05-08 03:17 | 41.42189 | 7.88094 | 9988 ft | 180 kts | 231° |
| 2026-05-08 03:18 | 41.41740 | 7.87297 | 9991 ft | 179 kts | 231° |
| 2026-05-08 03:18 | 41.41100 | 7.85874 | 9986 ft | 180 kts | 249° |
| 2026-05-08 03:18 | 41.40754 | 7.84276 | 9993 ft | 179 kts | 254° |
| 2026-05-08 03:18 | 41.40431 | 7.82674 | 9989 ft | 179 kts | 254° |
| 2026-05-08 03:19 | 41.40107 | 7.81076 | 9992 ft | 179 kts | 254° |
| 2026-05-08 03:19 | 41.39783 | 7.79481 | 9987 ft | 178 kts | 254° |
| 2026-05-08 03:19 | 41.39458 | 7.77885 | 9993 ft | 179 kts | 254° |
| 2026-05-08 03:19 | 41.39137 | 7.76310 | 9989 ft | 178 kts | 254° |
| 2026-05-08 03:20 | 41.38973 | 7.75511 | 9990 ft | 178 kts | 254° |
| 2026-05-08 03:20 | 41.38648 | 7.73918 | 9990 ft | 178 kts | 254° |
| 2026-05-08 03:20 | 41.38322 | 7.72325 | 9995 ft | 178 kts | 254° |
| 2026-05-08 03:20 | 41.37996 | 7.70727 | 9992 ft | 178 kts | 254° |
| 2026-05-08 03:21 | 41.37669 | 7.69131 | 9988 ft | 179 kts | 254° |
| 2026-05-08 03:21 | 41.37346 | 7.67556 | 9993 ft | 179 kts | 254° |
| 2026-05-08 03:21 | 41.37018 | 7.65960 | 9991 ft | 178 kts | 254° |
| 2026-05-08 03:21 | 41.36691 | 7.64365 | 9986 ft | 178 kts | 254° |
| 2026-05-08 03:22 | 41.36364 | 7.62773 | 9999 ft | 178 kts | 254° |
| 2026-05-08 03:22 | 41.36037 | 7.61180 | 9993 ft | 178 kts | 254° |
| 2026-05-08 03:22 | 41.35708 | 7.59583 | 9992 ft | 178 kts | 254° |
| 2026-05-08 03:22 | 41.35380 | 7.57989 | 9988 ft | 179 kts | 254° |
| 2026-05-08 03:23 | 41.35052 | 7.56396 | 9999 ft | 178 kts | 254° |
| 2026-05-08 03:23 | 41.34723 | 7.54803 | 9999 ft | 178 kts | 254° |
| 2026-05-08 03:23 | 41.34395 | 7.53210 | 9994 ft | 178 kts | 254° |
| 2026-05-08 03:23 | 41.34071 | 7.51642 | 9993 ft | 178 kts | 254° |
| 2026-05-08 03:24 | 41.33742 | 7.50052 | 9995 ft | 178 kts | 254° |
| 2026-05-08 03:24 | 41.33414 | 7.48464 | 9999 ft | 178 kts | 254° |
| 2026-05-08 03:24 | 41.33085 | 7.46874 | 9995 ft | 178 kts | 254° |
| 2026-05-08 03:24 | 41.32756 | 7.45285 | 9993 ft | 178 kts | 254° |
| 2026-05-08 03:25 | 41.32426 | 7.43696 | 9991 ft | 178 kts | 254° |
| 2026-05-08 03:25 | 41.32095 | 7.42100 | 9991 ft | 178 kts | 254° |
| 2026-05-08 03:25 | 41.31765 | 7.40510 | 9995 ft | 178 kts | 254° |
| 2026-05-08 03:25 | 41.31434 | 7.38918 | 9994 ft | 179 kts | 254° |
| 2026-05-08 03:26 | 41.31103 | 7.37326 | 9996 ft | 179 kts | 254° |
| 2026-05-08 03:26 | 41.30772 | 7.35732 | 9989 ft | 178 kts | 254° |
| 2026-05-08 03:26 | 41.30440 | 7.34140 | 9994 ft | 178 kts | 255° |
| 2026-05-08 03:26 | 41.30109 | 7.32552 | 9995 ft | 178 kts | 255° |
| 2026-05-08 03:27 | 41.29778 | 7.30962 | 9996 ft | 178 kts | 255° |
| 2026-05-08 03:27 | 41.29446 | 7.29373 | 9994 ft | 179 kts | 255° |
| 2026-05-08 03:27 | 41.29112 | 7.27778 | 9990 ft | 179 kts | 255° |
| 2026-05-08 03:27 | 41.28784 | 7.26206 | 9993 ft | 179 kts | 255° |